createdAt,value
2023-01-09T00:00:12.657Z,22.60
2023-01-09T00:02:41.996Z,22.60
2023-01-09T00:05:13.312Z,22.70
2023-01-09T00:07:42.933Z,22.60
2023-01-09T00:10:14.023Z,22.60
2023-01-09T00:12:43.700Z,22.60
2023-01-09T00:15:13.655Z,22.60
2023-01-09T00:17:43.014Z,22.60
2023-01-09T00:20:13.046Z,22.60
2023-01-09T00:22:42.482Z,22.60
2023-01-09T00:25:12.117Z,22.50
2023-01-09T00:27:41.419Z,22.60
2023-01-09T00:30:11.962Z,22.50
2023-01-09T00:32:42.040Z,22.50
2023-01-09T00:35:17.880Z,22.60
2023-01-09T00:37:47.404Z,22.60
2023-01-09T00:40:18.868Z,22.60
2023-01-09T00:42:57.914Z,22.60
2023-01-09T00:45:33.282Z,22.70
2023-01-09T00:48:14.051Z,22.70
2023-01-09T00:50:44.030Z,22.80
2023-01-09T00:53:20.107Z,22.80
2023-01-09T00:55:49.307Z,22.90
2023-01-09T00:58:19.540Z,22.90
2023-01-09T01:00:49.488Z,23.00
2023-01-09T01:03:18.662Z,23.00
2023-01-09T01:06:05.973Z,23.10
2023-01-09T01:08:35.084Z,23.10
2023-01-09T01:11:11.300Z,23.10
2023-01-09T01:13:42.616Z,23.10
2023-01-09T01:16:14.678Z,23.20
2023-01-09T01:18:44.015Z,23.20
2023-01-09T01:21:16.528Z,23.30
2023-01-09T01:23:46.205Z,23.40
2023-01-09T01:26:18.282Z,23.40
2023-01-09T01:28:49.627Z,23.50
2023-01-09T01:31:20.980Z,23.60
2023-01-09T01:33:52.754Z,23.70
2023-01-09T01:36:21.843Z,23.70
2023-01-09T01:38:51.089Z,23.80
2023-01-09T01:41:30.316Z,23.80
2023-01-09T01:44:04.353Z,23.90
2023-01-09T01:46:35.746Z,23.90
2023-01-09T01:49:21.344Z,24.00
2023-01-09T01:51:54.821Z,24.00
2023-01-09T01:54:36.387Z,24.10
2023-01-09T01:57:09.432Z,24.20
2023-01-09T01:59:54.608Z,24.20
2023-01-09T02:02:32.915Z,24.30
2023-01-09T02:05:07.585Z,24.30
2023-01-09T02:07:39.143Z,24.40
2023-01-09T02:10:09.444Z,24.50
2023-01-09T02:12:39.688Z,24.50
2023-01-09T02:15:14.751Z,24.60
2023-01-09T02:18:30.997Z,24.70
2023-01-09T02:21:26.404Z,24.80
2023-01-09T02:24:40.737Z,24.90
2023-01-09T02:27:21.823Z,25.00
2023-01-09T02:30:27.955Z,25.10
2023-01-09T02:33:20.887Z,25.10
2023-01-09T02:36:08.175Z,25.10
2023-01-09T02:39:09.158Z,25.20
2023-01-09T02:41:44.815Z,25.30
2023-01-09T02:44:28.573Z,25.40
2023-01-09T02:47:32.370Z,25.50
2023-01-09T02:50:06.199Z,25.50
2023-01-09T02:53:05.547Z,25.60
2023-01-09T02:55:54.303Z,25.60
2023-01-09T02:59:00.771Z,25.60
2023-01-09T03:02:02.237Z,25.60
2023-01-09T03:04:44.842Z,25.60
2023-01-09T03:07:37.927Z,25.70
2023-01-09T03:11:08.750Z,25.70
2023-01-09T03:13:52.447Z,25.80
2023-01-09T03:16:30.116Z,25.80
2023-01-09T03:19:01.768Z,25.90
2023-01-09T03:21:33.210Z,26.00
2023-01-09T03:24:04.091Z,26.10
2023-01-09T03:26:34.102Z,26.20
2023-01-09T03:29:03.723Z,26.20
2023-01-09T03:31:33.017Z,26.30
2023-01-09T03:34:02.283Z,26.40
2023-01-09T03:36:31.508Z,26.50
2023-01-09T03:39:00.710Z,26.50
2023-01-09T03:41:29.872Z,26.60
2023-01-09T03:43:59.038Z,26.60
2023-01-09T03:46:28.272Z,26.70
2023-01-09T03:48:57.552Z,26.80
2023-01-09T03:51:26.752Z,26.80
2023-01-09T03:53:56.046Z,26.80
2023-01-09T03:56:26.521Z,26.80
2023-01-09T03:58:57.028Z,26.80
2023-01-09T04:01:26.349Z,26.90
2023-01-09T04:03:55.600Z,26.90
2023-01-09T04:06:25.022Z,27.00
2023-01-09T04:08:54.175Z,27.20
2023-01-09T04:11:23.511Z,27.20
2023-01-09T04:13:52.748Z,27.30
2023-01-09T04:16:22.087Z,27.40
2023-01-09T04:18:51.304Z,27.50
2023-01-09T04:21:22.053Z,27.60
2023-01-09T04:23:51.352Z,27.60
2023-01-09T04:26:20.619Z,27.70
2023-01-09T04:28:50.082Z,27.80
2023-01-09T04:31:19.267Z,27.90
2023-01-09T04:33:48.518Z,28.00
2023-01-09T04:36:17.708Z,28.10
2023-01-09T04:38:46.868Z,28.10
2023-01-09T04:41:36.122Z,28.30
2023-01-09T04:44:05.578Z,28.30
2023-01-09T04:46:34.807Z,28.40
2023-01-09T04:49:04.089Z,28.40
2023-01-09T04:51:33.365Z,28.40
2023-01-09T04:54:02.611Z,28.40
2023-01-09T04:56:31.966Z,28.50
2023-01-09T04:59:01.851Z,28.60
2023-01-09T05:01:31.159Z,28.80
2023-01-09T05:04:00.519Z,28.90
2023-01-09T05:06:30.022Z,29.00
2023-01-09T05:08:59.592Z,29.10
2023-01-09T05:11:29.536Z,29.20
2023-01-09T05:13:58.668Z,29.30
2023-01-09T05:16:27.750Z,29.40
2023-01-09T05:18:58.185Z,29.50
2023-01-09T05:21:27.652Z,29.60
2023-01-09T05:23:56.776Z,29.70
2023-01-09T05:26:26.240Z,29.70
2023-01-09T05:28:59.697Z,29.70
2023-01-09T05:31:29.633Z,29.80
2023-01-09T05:34:00.275Z,29.80
2023-01-09T05:36:29.394Z,29.90
2023-01-09T05:39:03.545Z,29.90
2023-01-09T05:41:32.620Z,30.00
2023-01-09T05:44:01.803Z,30.10
2023-01-09T05:46:30.958Z,30.20
2023-01-09T05:49:00.381Z,30.30
2023-01-09T05:51:29.505Z,30.40
2023-01-09T05:53:59.078Z,30.40
2023-01-09T05:56:28.288Z,30.40
2023-01-09T05:58:58.755Z,30.40
2023-01-09T06:01:28.033Z,30.40
2023-01-09T06:03:57.291Z,30.50
2023-01-09T06:06:27.024Z,30.60
2023-01-09T06:08:56.247Z,30.70
2023-01-09T06:11:25.414Z,30.70
2023-01-09T06:13:54.608Z,30.70
2023-01-09T06:16:23.825Z,30.70
2023-01-09T06:18:53.056Z,30.70
2023-01-09T06:21:22.265Z,30.70
2023-01-09T06:23:51.423Z,30.80
2023-01-09T06:26:20.620Z,30.90
2023-01-09T06:28:49.810Z,31.00
2023-01-09T06:31:19.059Z,31.00
2023-01-09T06:33:48.319Z,31.00
2023-01-09T06:36:17.799Z,31.00
2023-01-09T06:38:46.969Z,31.10
2023-01-09T06:41:16.170Z,31.10
2023-01-09T06:43:45.493Z,31.10
2023-01-09T06:46:14.749Z,31.20
2023-01-09T06:48:43.986Z,31.20
2023-01-09T06:51:13.167Z,31.20
2023-01-09T06:53:42.380Z,31.30
2023-01-09T06:56:11.575Z,31.30
2023-01-09T06:58:40.844Z,31.50
2023-01-09T07:01:10.337Z,31.60
2023-01-09T07:03:39.650Z,31.80
2023-01-09T07:06:09.095Z,31.80
2023-01-09T07:08:38.348Z,31.90
2023-01-09T07:11:07.655Z,31.90
2023-01-09T07:13:39.284Z,32.00
2023-01-09T07:16:09.204Z,32.00
2023-01-09T07:18:38.451Z,32.10
2023-01-09T07:21:10.782Z,32.20
2023-01-09T07:23:39.993Z,32.30
2023-01-09T07:26:09.171Z,32.30
2023-01-09T07:28:38.478Z,32.20
2023-01-09T07:31:08.589Z,32.20
2023-01-09T07:33:38.088Z,32.20
2023-01-09T07:36:07.804Z,32.10
2023-01-09T07:38:37.592Z,32.00
2023-01-09T07:41:07.185Z,31.90
2023-01-09T07:43:37.127Z,31.80
2023-01-09T07:46:07.508Z,31.80
2023-01-09T07:48:36.718Z,31.70
2023-01-09T07:51:07.178Z,31.60
2023-01-09T07:53:36.365Z,31.50
2023-01-09T07:56:05.816Z,31.50
2023-01-09T07:58:35.045Z,31.40
2023-01-09T08:01:05.572Z,31.40
2023-01-09T08:03:35.269Z,31.30
2023-01-09T08:06:08.168Z,31.30
2023-01-09T08:08:37.433Z,31.20
2023-01-09T08:11:06.675Z,31.10
2023-01-09T08:13:35.871Z,31.10
2023-01-09T08:16:05.143Z,31.00
2023-01-09T08:18:34.364Z,31.00
2023-01-09T08:21:03.455Z,31.00
2023-01-09T08:23:32.522Z,30.90
2023-01-09T08:26:01.707Z,30.90
2023-01-09T08:28:30.860Z,30.80
2023-01-09T08:31:01.101Z,30.80
2023-01-09T08:33:33.915Z,30.80
2023-01-09T08:36:03.871Z,30.70
2023-01-09T08:38:33.744Z,30.70
2023-01-09T08:41:23.207Z,30.70
2023-01-09T08:44:11.110Z,30.70
2023-01-09T08:46:58.813Z,30.60
2023-01-09T08:49:28.541Z,30.60
2023-01-09T08:51:58.320Z,30.50
2023-01-09T08:54:28.108Z,30.40
2023-01-09T08:56:57.980Z,30.40
2023-01-09T08:59:28.057Z,30.40
2023-01-09T09:01:58.781Z,30.30
2023-01-09T09:04:30.122Z,30.30
2023-01-09T09:06:59.372Z,30.20
2023-01-09T09:09:28.552Z,30.20
2023-01-09T09:11:57.778Z,30.10
2023-01-09T09:14:45.344Z,30.00
2023-01-09T09:17:14.629Z,30.00
2023-01-09T09:19:43.787Z,30.00
2023-01-09T09:22:12.941Z,29.90
2023-01-09T09:24:42.206Z,29.90
2023-01-09T09:27:11.376Z,29.80
2023-01-09T09:29:40.534Z,29.70
2023-01-09T09:32:09.759Z,29.60
2023-01-09T09:34:39.168Z,29.60
2023-01-09T09:37:08.954Z,29.50
2023-01-09T09:39:38.236Z,29.50
2023-01-09T09:42:36.015Z,29.40
2023-01-09T09:45:08.441Z,29.40
2023-01-09T09:47:57.052Z,29.40
2023-01-09T09:50:47.752Z,29.40
2023-01-09T09:53:36.905Z,29.40
2023-01-09T09:56:07.444Z,29.40
2023-01-09T09:58:47.581Z,29.30
2023-01-09T10:01:43.002Z,29.30
2023-01-09T10:04:20.027Z,29.30
2023-01-09T10:07:07.092Z,29.30
2023-01-09T10:10:01.586Z,29.20
2023-01-09T10:12:58.439Z,29.20
2023-01-09T10:16:00.030Z,29.10
2023-01-09T10:18:45.361Z,29.00
2023-01-09T10:22:07.853Z,28.90
2023-01-09T10:25:12.177Z,28.90
2023-01-09T10:28:31.015Z,28.80
2023-01-09T10:31:30.416Z,28.80
2023-01-09T10:34:11.873Z,28.80
2023-01-09T10:37:20.165Z,28.80
2023-01-09T10:40:22.003Z,28.80
2023-01-09T10:43:03.346Z,28.70
2023-01-09T10:45:56.627Z,28.70
2023-01-09T10:48:37.010Z,28.60
2023-01-09T10:51:25.321Z,28.50
2023-01-09T10:53:57.627Z,28.50
2023-01-09T10:56:38.335Z,28.40
2023-01-09T10:59:11.102Z,28.40
2023-01-09T11:01:44.312Z,28.40
2023-01-09T11:04:38.581Z,28.30
2023-01-09T11:07:33.494Z,28.30
2023-01-09T11:10:12.722Z,28.20
2023-01-09T11:12:42.758Z,28.20
2023-01-09T11:15:30.057Z,28.20
2023-01-09T11:18:23.128Z,28.10
2023-01-09T11:20:53.762Z,28.10
2023-01-09T11:23:34.979Z,28.10
2023-01-09T11:26:05.034Z,28.00
2023-01-09T11:28:34.294Z,28.00
2023-01-09T11:31:04.645Z,28.00
2023-01-09T11:33:49.201Z,28.00
2023-01-09T11:36:20.080Z,28.00
2023-01-09T11:38:56.592Z,28.00
2023-01-09T11:41:31.676Z,28.00
2023-01-09T11:44:04.109Z,28.00
2023-01-09T11:46:45.658Z,28.00
2023-01-09T11:49:25.417Z,28.00
2023-01-09T11:52:23.448Z,28.00
2023-01-09T11:55:06.503Z,27.90
2023-01-09T11:57:35.929Z,27.90
2023-01-09T12:00:27.677Z,27.80
2023-01-09T12:03:47.155Z,27.80
2023-01-09T12:06:49.407Z,27.80
2023-01-09T12:10:01.531Z,27.70
2023-01-09T12:13:00.527Z,27.70
2023-01-09T12:15:41.793Z,27.70
2023-01-09T12:18:33.127Z,27.60
2023-01-09T12:21:30.265Z,27.60
2023-01-09T12:24:23.401Z,27.60
2023-01-09T12:27:01.167Z,27.50
2023-01-09T12:29:38.933Z,27.50
2023-01-09T12:32:33.725Z,27.40
2023-01-09T12:35:42.483Z,27.40
2023-01-09T12:38:41.553Z,27.30
2023-01-09T12:41:23.831Z,27.20
2023-01-09T12:44:34.623Z,27.20
2023-01-09T12:47:34.680Z,27.10
2023-01-09T12:50:20.112Z,27.10
2023-01-09T12:53:23.113Z,27.10
2023-01-09T12:56:20.388Z,27.00
2023-01-09T12:59:01.871Z,26.90
2023-01-09T13:01:47.388Z,26.90
2023-01-09T13:04:35.809Z,26.90
2023-01-09T13:07:21.624Z,26.80
2023-01-09T13:10:34.566Z,26.80
2023-01-09T13:13:19.816Z,26.80
2023-01-09T13:16:12.006Z,26.80
2023-01-09T13:18:53.414Z,26.70
2023-01-09T13:21:23.284Z,26.70
2023-01-09T13:24:22.203Z,26.70
2023-01-09T13:27:21.215Z,26.60
2023-01-09T13:30:03.157Z,26.60
2023-01-09T13:32:59.650Z,26.60
2023-01-09T13:35:29.153Z,26.50
2023-01-09T13:37:58.720Z,26.40
2023-01-09T13:40:39.333Z,26.40
2023-01-09T13:43:15.710Z,26.40
2023-01-09T13:45:58.819Z,26.40
2023-01-09T13:48:40.692Z,26.30
2023-01-09T13:51:48.347Z,26.20
2023-01-09T13:55:01.912Z,26.20
2023-01-09T13:57:46.676Z,26.20
2023-01-09T14:00:22.453Z,26.10
2023-01-09T14:03:18.313Z,26.10
2023-01-09T14:05:52.625Z,26.10
2023-01-09T14:08:27.256Z,26.10
2023-01-09T14:11:04.399Z,26.00
2023-01-09T14:13:46.119Z,26.00
2023-01-09T14:16:24.751Z,26.00
2023-01-09T14:19:02.536Z,26.00
2023-01-09T14:21:58.276Z,26.00
2023-01-09T14:24:34.964Z,26.00
2023-01-09T14:27:04.385Z,25.90
2023-01-09T14:29:33.518Z,25.90
2023-01-09T14:32:24.227Z,25.90
2023-01-09T14:35:20.579Z,25.90
2023-01-09T14:38:06.459Z,25.90
2023-01-09T14:40:47.284Z,25.90
2023-01-09T14:44:06.142Z,25.90
2023-01-09T14:46:39.989Z,25.90
2023-01-09T14:49:26.509Z,25.80
2023-01-09T14:51:59.780Z,25.80
2023-01-09T14:54:35.423Z,25.80
2023-01-09T14:57:05.037Z,25.80
2023-01-09T14:59:36.440Z,25.80
2023-01-09T15:02:05.772Z,25.80
2023-01-09T15:04:42.431Z,25.80
2023-01-09T15:07:26.897Z,25.80
2023-01-09T15:10:06.782Z,25.80
2023-01-09T15:12:36.865Z,25.80
2023-01-09T15:15:09.560Z,25.90
2023-01-09T15:17:40.340Z,25.90
2023-01-09T15:20:21.889Z,25.90
2023-01-09T15:22:54.597Z,25.90
2023-01-09T15:25:40.393Z,25.90
2023-01-09T15:28:29.968Z,25.90
2023-01-09T15:31:15.959Z,25.90
2023-01-09T15:33:48.696Z,25.90
2023-01-09T15:36:31.854Z,25.90
2023-01-09T15:39:01.930Z,25.90
2023-01-09T15:41:51.677Z,25.90
2023-01-09T15:44:29.420Z,25.90
2023-01-09T15:47:03.305Z,25.90
2023-01-09T15:49:34.703Z,25.90
2023-01-09T15:52:05.602Z,25.90
2023-01-09T15:54:36.240Z,25.90
2023-01-09T15:57:26.892Z,25.90
2023-01-09T15:59:59.308Z,25.90
2023-01-09T16:02:47.243Z,25.90
2023-01-09T16:05:18.877Z,25.90
2023-01-09T16:07:50.475Z,25.90
2023-01-09T16:11:01.954Z,25.90
2023-01-09T16:13:36.255Z,25.90
2023-01-09T16:16:06.115Z,25.90
2023-01-09T16:18:50.733Z,25.90
2023-01-09T16:21:35.155Z,25.90
2023-01-09T16:24:49.548Z,25.90
2023-01-09T16:27:26.980Z,25.80
2023-01-09T16:30:09.740Z,25.80
2023-01-09T16:32:52.346Z,25.80
2023-01-09T16:35:27.104Z,25.80
2023-01-09T16:37:56.489Z,25.80
2023-01-09T16:40:28.196Z,25.70
2023-01-09T16:43:02.581Z,25.70
2023-01-09T16:45:36.507Z,25.70
2023-01-09T16:48:22.631Z,25.60
2023-01-09T16:50:51.891Z,25.60
2023-01-09T16:53:26.657Z,25.60
2023-01-09T16:55:56.425Z,25.60
2023-01-09T16:58:36.392Z,25.50
2023-01-09T17:01:06.538Z,25.50
2023-01-09T17:03:35.695Z,25.50
2023-01-09T17:06:07.240Z,25.50
2023-01-09T17:08:39.593Z,25.50
2023-01-09T17:11:35.906Z,25.50
2023-01-09T17:14:05.265Z,25.40
2023-01-09T17:16:39.824Z,25.40
2023-01-09T17:19:14.902Z,25.40
2023-01-09T17:21:44.059Z,25.40
2023-01-09T17:24:31.457Z,25.40
2023-01-09T17:27:21.566Z,25.30
2023-01-09T17:29:50.847Z,25.30
2023-01-09T17:32:21.332Z,25.30
2023-01-09T17:34:50.472Z,25.30
2023-01-09T17:37:21.002Z,25.30
2023-01-09T17:39:50.177Z,25.30
2023-01-09T17:51:32.576Z,25.20
2023-01-09T17:54:01.767Z,25.20
2023-01-09T17:56:36.158Z,25.10
2023-01-09T17:59:07.260Z,25.10
2023-01-09T18:01:37.704Z,25.10
2023-01-09T18:04:07.026Z,25.10
2023-01-09T18:06:40.087Z,25.10
2023-01-09T18:09:11.883Z,25.10
2023-01-09T18:11:42.837Z,25.10
2023-01-09T18:14:13.859Z,25.10
2023-01-09T18:16:43.308Z,25.10
2023-01-09T18:19:12.915Z,25.10
2023-01-09T18:21:42.083Z,25.00
2023-01-09T18:24:11.458Z,25.10
2023-01-09T18:26:40.683Z,25.00
2023-01-09T18:29:12.319Z,25.00
2023-01-09T18:31:41.642Z,25.00
2023-01-09T18:34:12.081Z,25.00
2023-01-09T18:36:41.426Z,25.00
2023-01-09T18:39:12.855Z,24.90
2023-01-09T18:41:42.076Z,25.00
2023-01-09T18:44:11.553Z,24.90
2023-01-09T18:46:43.087Z,24.90
2023-01-09T18:49:12.424Z,24.80
2023-01-09T18:51:41.958Z,24.80
2023-01-09T18:54:12.700Z,24.80
2023-01-09T18:56:42.305Z,24.80
2023-01-09T18:59:13.319Z,24.80
2023-01-09T19:01:42.524Z,24.80
2023-01-09T19:04:11.792Z,24.80
2023-01-09T19:06:41.029Z,24.70
2023-01-09T19:09:10.246Z,24.70
2023-01-09T19:11:39.455Z,24.70
2023-01-09T19:14:08.705Z,24.70
2023-01-09T19:16:37.949Z,24.70
2023-01-09T19:19:09.496Z,24.70
2023-01-09T19:21:38.775Z,24.70
2023-01-09T19:24:08.418Z,24.70
2023-01-09T19:26:37.676Z,24.70
2023-01-09T19:29:06.847Z,24.70
2023-01-09T19:31:36.283Z,24.70
2023-01-09T19:34:05.501Z,24.70
2023-01-09T19:36:35.076Z,24.60
2023-01-09T19:39:06.235Z,24.60
2023-01-09T19:41:35.409Z,24.60
2023-01-09T19:44:04.948Z,24.60
2023-01-09T19:46:36.376Z,24.60
2023-01-09T19:49:07.035Z,24.60
2023-01-09T19:51:36.521Z,24.60
2023-01-09T19:56:41.603Z,24.60
2023-01-09T19:59:13.205Z,24.60
2023-01-09T20:01:43.484Z,24.60
2023-01-09T20:04:18.342Z,24.60
2023-01-09T20:06:50.811Z,24.50
2023-01-09T20:09:28.314Z,24.50
2023-01-09T20:11:57.675Z,24.50
2023-01-09T20:14:26.947Z,24.50
2023-01-09T20:17:00.865Z,24.50
2023-01-09T20:19:31.110Z,24.40
2023-01-09T20:22:01.937Z,24.40
2023-01-09T20:24:31.337Z,24.40
2023-01-09T20:27:01.661Z,24.40
2023-01-09T20:29:30.840Z,24.40
2023-01-09T20:32:00.747Z,24.40
2023-01-09T20:34:29.944Z,24.40
2023-01-09T20:36:59.050Z,24.40
2023-01-09T20:39:28.180Z,24.40
2023-01-09T20:41:57.467Z,24.40
2023-01-09T20:44:26.722Z,24.30
2023-01-09T20:46:55.910Z,24.30
2023-01-09T20:49:25.149Z,24.30
2023-01-09T20:51:55.052Z,24.30
2023-01-09T20:54:24.605Z,24.30
2023-01-09T20:56:54.604Z,24.30
2023-01-09T20:59:24.491Z,24.30
2023-01-09T21:01:53.978Z,24.20
2023-01-09T21:04:23.229Z,24.20
2023-01-09T21:06:52.434Z,24.20
2023-01-09T21:09:21.817Z,24.10
2023-01-09T21:11:50.934Z,24.10
2023-01-09T21:14:21.055Z,24.00
2023-01-09T21:16:54.981Z,24.00
2023-01-09T21:19:24.996Z,24.00
2023-01-09T21:21:54.134Z,24.00
2023-01-09T21:24:23.301Z,24.00
2023-01-09T21:26:52.405Z,23.90
2023-01-09T21:29:21.536Z,23.90
2023-01-09T21:31:50.674Z,23.90
2023-01-09T21:34:21.758Z,23.90
2023-01-09T21:36:51.269Z,23.90
2023-01-09T21:39:22.283Z,23.90
2023-01-09T21:42:09.528Z,23.90
2023-01-09T21:44:57.124Z,23.90
2023-01-09T21:47:26.345Z,23.80
2023-01-09T21:49:55.448Z,23.80
2023-01-09T21:52:26.623Z,23.80
2023-01-09T21:54:56.812Z,23.80
2023-01-09T21:57:26.362Z,23.80
2023-01-09T21:59:55.615Z,23.80
2023-01-09T22:02:24.860Z,23.80
2023-01-09T22:04:54.540Z,23.80
2023-01-09T22:07:23.726Z,23.80
2023-01-09T22:09:53.530Z,23.80
2023-01-09T22:12:22.770Z,23.80
2023-01-09T22:14:51.900Z,23.80
2023-01-09T22:17:21.128Z,23.80
2023-01-09T22:19:50.440Z,23.80
2023-01-09T22:22:19.674Z,23.80
2023-01-09T22:24:49.102Z,23.80
2023-01-09T22:27:18.421Z,23.80
2023-01-09T22:29:47.850Z,23.80
2023-01-09T22:32:17.150Z,23.80
2023-01-09T22:34:46.457Z,23.80
2023-01-09T22:37:16.501Z,23.80
2023-01-09T22:39:46.303Z,23.70
2023-01-09T22:42:17.726Z,23.80
2023-01-09T22:44:47.043Z,23.70
2023-01-09T22:47:16.225Z,23.70
2023-01-09T22:49:52.707Z,23.80
2023-01-09T22:52:23.061Z,23.70
2023-01-09T22:54:52.271Z,23.70
2023-01-09T22:57:21.524Z,23.70
2023-01-09T22:59:51.080Z,23.70
2023-01-09T23:02:20.784Z,23.70
2023-01-09T23:04:49.974Z,23.70
2023-01-09T23:07:19.495Z,23.70
2023-01-09T23:09:48.755Z,23.70
2023-01-09T23:12:17.979Z,23.80
2023-01-09T23:14:47.225Z,23.80
2023-01-09T23:17:16.439Z,23.70
2023-01-09T23:19:45.665Z,23.70
2023-01-09T23:22:14.933Z,23.70
2023-01-09T23:24:44.045Z,23.80
2023-01-09T23:27:13.328Z,23.80
2023-01-09T23:29:42.596Z,23.70
2023-01-09T23:32:14.933Z,23.80
2023-01-09T23:34:44.096Z,23.70
2023-01-09T23:37:13.364Z,23.70
2023-01-09T23:39:42.621Z,23.70
2023-01-09T23:42:34.046Z,23.70
2023-01-09T23:45:03.426Z,23.70
2023-01-09T23:47:32.541Z,23.70
2023-01-09T23:50:01.721Z,23.70
2023-01-09T23:52:31.056Z,23.70
2023-01-09T23:55:11.945Z,23.70
2023-01-09T23:57:41.321Z,23.70
